sensor_id;sensor_type;location;lat;lon;timestamp;noise_LAeq;noise_LA_min;noise_LA_max;noise_LA01;noise_LA95
58251;Laerm;51449;51.676;5.812;2023-04-01T00:01:19;55.72;37.08;74.01;;
58251;Laerm;51449;51.676;5.812;2023-04-01T00:03:42;59.27;35.77;77.07;;
58251;Laerm;51449;51.676;5.812;2023-04-01T00:06:05;55.46;35.65;72.85;;
58251;Laerm;51449;51.676;5.812;2023-04-01T00:08:28;57.95;37.39;72.91;;
58251;Laerm;51449;51.676;5.812;2023-04-01T00:10:50;63.22;36.56;77.21;;
58251;Laerm;51449;51.676;5.812;2023-04-01T00:13:12;56.62;40.60;71.38;;
58251;Laerm;51449;51.676;5.812;2023-04-01T00:15:34;57.15;38.94;75.05;;
58251;Laerm;51449;51.676;5.812;2023-04-01T00:17:56;43.74;37.07;61.09;;
58251;Laerm;51449;51.676;5.812;2023-04-01T00:20:18;53.83;36.62;68.60;;
58251;Laerm;51449;51.676;5.812;2023-04-01T00:22:40;55.35;37.45;70.93;;
58251;Laerm;51449;51.676;5.812;2023-04-01T00:25:04;59.82;41.34;72.92;;
58251;Laerm;51449;51.676;5.812;2023-04-01T00:27:26;63.87;40.59;78.13;;
58251;Laerm;51449;51.676;5.812;2023-04-01T00:29:48;42.95;37.90;57.45;;
58251;Laerm;51449;51.676;5.812;2023-04-01T00:32:09;57.87;37.81;73.82;;
58251;Laerm;51449;51.676;5.812;2023-04-01T00:34:31;47.04;38.17;62.52;;
58251;Laerm;51449;51.676;5.812;2023-04-01T00:36:53;44.53;36.62;62.20;;
58251;Laerm;51449;51.676;5.812;2023-04-01T00:39:16;59.75;37.86;75.47;;
58251;Laerm;51449;51.676;5.812;2023-04-01T00:41:38;62.61;37.11;79.35;;
58251;Laerm;51449;51.676;5.812;2023-04-01T00:44:26;59.06;38.64;76.17;;
58251;Laerm;51449;51.676;5.812;2023-04-01T00:46:48;45.64;41.09;55.97;;
58251;Laerm;51449;51.676;5.812;2023-04-01T00:49:10;64.84;42.39;77.04;;
58251;Laerm;51449;51.676;5.812;2023-04-01T00:51:32;61.36;41.58;75.37;;
58251;Laerm;51449;51.676;5.812;2023-04-01T00:53:59;60.69;41.88;76.40;;
58251;Laerm;51449;51.676;5.812;2023-04-01T00:56:37;64.94;40.72;79.34;;
58251;Laerm;51449;51.676;5.812;2023-04-01T00:59:09;43.13;38.19;57.68;;
58251;Laerm;51449;51.676;5.812;2023-04-01T01:01:34;57.58;38.55;73.93;;
58251;Laerm;51449;51.676;5.812;2023-04-01T01:03:56;69.73;42.13;83.65;;
58251;Laerm;51449;51.676;5.812;2023-04-01T01:09:46;51.14;34.83;73.63;;
58251;Laerm;51449;51.676;5.812;2023-04-01T01:12:40;44.94;35.55;60.34;;
58251;Laerm;51449;51.676;5.812;2023-04-01T01:17:57;44.52;36.19;59.90;;
58251;Laerm;51449;51.676;5.812;2023-04-01T01:24:17;42.47;36.38;55.52;;
58251;Laerm;51449;51.676;5.812;2023-04-01T01:27:00;40.12;34.07;55.51;;
58251;Laerm;51449;51.676;5.812;2023-04-01T01:35:31;59.76;33.50;76.88;;
58251;Laerm;51449;51.676;5.812;2023-04-01T01:38:08;39.97;34.10;57.50;;
58251;Laerm;51449;51.676;5.812;2023-04-01T01:40:33;65.68;36.44;80.98;;
58251;Laerm;51449;51.676;5.812;2023-04-01T01:43:05;59.66;36.26;77.46;;
58251;Laerm;51449;51.676;5.812;2023-04-01T01:45:30;56.21;36.23;74.29;;
58251;Laerm;51449;51.676;5.812;2023-04-01T01:47:56;41.31;34.79;55.71;;
58251;Laerm;51449;51.676;5.812;2023-04-01T01:50:21;57.94;36.42;71.59;;
58251;Laerm;51449;51.676;5.812;2023-04-01T01:52:43;44.00;36.04;63.61;;
58251;Laerm;51449;51.676;5.812;2023-04-01T01:55:35;63.76;35.60;79.25;;
58251;Laerm;51449;51.676;5.812;2023-04-01T01:58:04;55.16;36.79;72.18;;
58251;Laerm;51449;51.676;5.812;2023-04-01T02:00:28;60.86;36.82;77.17;;
58251;Laerm;51449;51.676;5.812;2023-04-01T02:02:50;57.18;37.24;74.42;;
58251;Laerm;51449;51.676;5.812;2023-04-01T02:05:21;64.71;36.31;79.93;;
58251;Laerm;51449;51.676;5.812;2023-04-01T02:07:55;46.92;34.67;63.00;;
58251;Laerm;51449;51.676;5.812;2023-04-01T02:10:24;41.06;34.39;58.17;;
58251;Laerm;51449;51.676;5.812;2023-04-01T02:12:49;51.44;35.51;71.50;;
58251;Laerm;51449;51.676;5.812;2023-04-01T02:15:15;53.61;34.95;71.15;;
58251;Laerm;51449;51.676;5.812;2023-04-01T02:17:43;59.87;34.85;75.18;;
58251;Laerm;51449;51.676;5.812;2023-04-01T02:20:18;62.85;34.18;75.38;;
58251;Laerm;51449;51.676;5.812;2023-04-01T02:22:48;65.02;36.22;79.92;;
58251;Laerm;51449;51.676;5.812;2023-04-01T02:25:15;58.44;35.73;73.68;;
58251;Laerm;51449;51.676;5.812;2023-04-01T02:27:43;42.38;37.32;59.82;;
58251;Laerm;51449;51.676;5.812;2023-04-01T02:30:07;59.71;37.96;75.50;;
58251;Laerm;51449;51.676;5.812;2023-04-01T02:32:33;54.35;36.15;72.02;;
58251;Laerm;51449;51.676;5.812;2023-04-01T02:34:56;57.40;35.70;73.73;;
58251;Laerm;51449;51.676;5.812;2023-04-01T02:37:18;56.47;34.58;71.91;;
58251;Laerm;51449;51.676;5.812;2023-04-01T02:39:40;40.63;33.85;63.66;;
58251;Laerm;51449;51.676;5.812;2023-04-01T02:42:04;58.60;34.89;71.67;;
58251;Laerm;51449;51.676;5.812;2023-04-01T02:44:27;57.72;34.38;72.90;;
58251;Laerm;51449;51.676;5.812;2023-04-01T02:46:48;60.48;37.01;76.16;;
58251;Laerm;51449;51.676;5.812;2023-04-01T02:49:10;47.07;35.95;64.32;;
58251;Laerm;51449;51.676;5.812;2023-04-01T02:51:33;58.77;37.86;71.64;;
58251;Laerm;51449;51.676;5.812;2023-04-01T02:53:55;63.67;40.03;77.89;;
58251;Laerm;51449;51.676;5.812;2023-04-01T02:56:17;47.07;39.41;64.73;;
58251;Laerm;51449;51.676;5.812;2023-04-01T02:58:38;55.74;37.86;71.71;;
58251;Laerm;51449;51.676;5.812;2023-04-01T03:01:00;48.02;36.57;65.92;;
58251;Laerm;51449;51.676;5.812;2023-04-01T03:03:22;67.18;41.50;81.23;;
58251;Laerm;51449;51.676;5.812;2023-04-01T03:05:44;63.71;37.22;78.56;;
58251;Laerm;51449;51.676;5.812;2023-04-01T03:08:06;60.94;36.20;74.03;;
58251;Laerm;51449;51.676;5.812;2023-04-01T03:10:27;64.42;34.33;79.25;;
58251;Laerm;51449;51.676;5.812;2023-04-01T03:12:49;66.32;36.17;81.65;;
58251;Laerm;51449;51.676;5.812;2023-04-01T03:15:13;66.75;34.26;79.56;;
58251;Laerm;51449;51.676;5.812;2023-04-01T03:17:36;56.28;33.11;71.11;;
58251;Laerm;51449;51.676;5.812;2023-04-01T03:19:57;61.53;36.44;75.76;;
58251;Laerm;51449;51.676;5.812;2023-04-01T03:22:19;57.80;34.12;74.67;;
58251;Laerm;51449;51.676;5.812;2023-04-01T03:24:42;61.65;33.17;74.13;;
58251;Laerm;51449;51.676;5.812;2023-04-01T03:27:04;56.10;34.04;71.98;;
58251;Laerm;51449;51.676;5.812;2023-04-01T03:29:25;64.54;32.00;81.99;;
58251;Laerm;51449;51.676;5.812;2023-04-01T03:31:47;59.19;34.39;72.72;;
58251;Laerm;51449;51.676;5.812;2023-04-01T03:34:09;58.88;35.49;71.75;;
58251;Laerm;51449;51.676;5.812;2023-04-01T03:36:31;56.70;32.80;73.16;;
58251;Laerm;51449;51.676;5.812;2023-04-01T03:38:53;41.04;32.14;55.02;;
58251;Laerm;51449;51.676;5.812;2023-04-01T03:41:23;56.20;33.35;69.31;;
58251;Laerm;51449;51.676;5.812;2023-04-01T03:43:44;42.37;31.45;60.44;;
58251;Laerm;51449;51.676;5.812;2023-04-01T03:46:06;64.73;32.64;80.30;;
58251;Laerm;51449;51.676;5.812;2023-04-01T03:48:28;53.52;34.55;70.18;;
58251;Laerm;51449;51.676;5.812;2023-04-01T03:50:50;51.39;33.11;67.20;;
58251;Laerm;51449;51.676;5.812;2023-04-01T03:53:12;53.30;33.04;71.48;;
58251;Laerm;51449;51.676;5.812;2023-04-01T03:55:37;63.82;38.49;77.19;;
58251;Laerm;51449;51.676;5.812;2023-04-01T03:57:59;44.59;39.19;64.93;;
58251;Laerm;51449;51.676;5.812;2023-04-01T04:00:23;45.11;39.23;58.96;;
58251;Laerm;51449;51.676;5.812;2023-04-01T04:02:48;45.71;39.98;57.93;;
58251;Laerm;51449;51.676;5.812;2023-04-01T04:05:15;67.75;40.01;82.14;;
58251;Laerm;51449;51.676;5.812;2023-04-01T04:07:37;61.74;40.12;76.09;;
58251;Laerm;51449;51.676;5.812;2023-04-01T04:10:01;57.21;40.88;73.40;;
58251;Laerm;51449;51.676;5.812;2023-04-01T04:12:43;69.14;41.85;83.66;;
58251;Laerm;51449;51.676;5.812;2023-04-01T04:15:25;68.62;44.49;80.70;;
58251;Laerm;51449;51.676;5.812;2023-04-01T04:18:07;68.69;41.81;82.09;;
58251;Laerm;51449;51.676;5.812;2023-04-01T04:20:49;58.50;43.36;75.93;;
58251;Laerm;51449;51.676;5.812;2023-04-01T04:23:33;64.09;42.74;78.22;;
58251;Laerm;51449;51.676;5.812;2023-04-01T04:26:15;66.75;44.28;79.32;;
58251;Laerm;51449;51.676;5.812;2023-04-01T04:29:02;63.99;44.24;77.54;;
58251;Laerm;51449;51.676;5.812;2023-04-01T04:31:45;65.76;46.48;76.17;;
58251;Laerm;51449;51.676;5.812;2023-04-01T04:34:27;72.03;47.09;84.56;;
58251;Laerm;51449;51.676;5.812;2023-04-01T04:37:09;65.94;46.46;76.73;;
58251;Laerm;51449;51.676;5.812;2023-04-01T04:39:51;66.55;46.30;79.90;;
58251;Laerm;51449;51.676;5.812;2023-04-01T04:42:13;66.39;46.83;77.31;;
58251;Laerm;51449;51.676;5.812;2023-04-01T04:44:36;70.48;47.28;82.63;;
58251;Laerm;51449;51.676;5.812;2023-04-01T04:46:58;68.15;47.52;82.86;;
58251;Laerm;51449;51.676;5.812;2023-04-01T04:49:20;70.53;47.43;82.36;;
58251;Laerm;51449;51.676;5.812;2023-04-01T04:51:42;66.92;44.43;80.65;;
58251;Laerm;51449;51.676;5.812;2023-04-01T04:54:06;63.43;45.49;75.53;;
58251;Laerm;51449;51.676;5.812;2023-04-01T04:56:52;62.08;46.31;75.27;;
58251;Laerm;51449;51.676;5.812;2023-04-01T04:59:15;71.08;45.15;86.42;;
58251;Laerm;51449;51.676;5.812;2023-04-01T05:01:55;66.51;43.85;84.90;;
58251;Laerm;51449;51.676;5.812;2023-04-01T05:04:17;66.92;42.62;85.17;;
58251;Laerm;51449;51.676;5.812;2023-04-01T05:06:39;71.96;47.09;88.87;;
58251;Laerm;51449;51.676;5.812;2023-04-01T05:09:01;68.69;46.55;80.39;;
58251;Laerm;51449;51.676;5.812;2023-04-01T05:11:23;65.51;42.15;79.69;;
58251;Laerm;51449;51.676;5.812;2023-04-01T05:13:46;63.28;44.05;79.00;;
58251;Laerm;51449;51.676;5.812;2023-04-01T05:16:15;66.27;44.58;76.66;;
58251;Laerm;51449;51.676;5.812;2023-04-01T05:18:37;70.76;41.06;79.93;;
58251;Laerm;51449;51.676;5.812;2023-04-01T05:20:59;69.02;48.69;79.95;;
58251;Laerm;51449;51.676;5.812;2023-04-01T05:23:22;65.88;42.93;76.73;;
58251;Laerm;51449;51.676;5.812;2023-04-01T05:25:44;66.28;43.61;77.82;;
58251;Laerm;51449;51.676;5.812;2023-04-01T05:28:06;63.10;43.82;75.88;;
58251;Laerm;51449;51.676;5.812;2023-04-01T05:30:28;52.90;40.84;69.45;;
58251;Laerm;51449;51.676;5.812;2023-04-01T05:33:04;70.78;42.62;81.35;;
58251;Laerm;51449;51.676;5.812;2023-04-01T05:35:26;57.38;42.60;71.32;;
58251;Laerm;51449;51.676;5.812;2023-04-01T05:37:48;70.02;44.62;82.66;;
58251;Laerm;51449;51.676;5.812;2023-04-01T05:40:11;68.26;46.63;81.04;;
58251;Laerm;51449;51.676;5.812;2023-04-01T05:42:34;70.60;42.72;84.60;;
58251;Laerm;51449;51.676;5.812;2023-04-01T05:44:58;70.80;46.47;83.05;;
58251;Laerm;51449;51.676;5.812;2023-04-01T05:47:39;68.23;45.03;80.60;;
58251;Laerm;51449;51.676;5.812;2023-04-01T05:50:00;68.48;46.47;78.08;;
58251;Laerm;51449;51.676;5.812;2023-04-01T05:52:23;70.67;49.11;81.55;;
58251;Laerm;51449;51.676;5.812;2023-04-01T05:54:45;65.80;42.19;81.37;;
58251;Laerm;51449;51.676;5.812;2023-04-01T05:57:07;67.63;43.62;77.95;;
58251;Laerm;51449;51.676;5.812;2023-04-01T05:59:29;70.05;43.76;83.85;;
58251;Laerm;51449;51.676;5.812;2023-04-01T06:01:53;62.90;41.73;75.71;;
58251;Laerm;51449;51.676;5.812;2023-04-01T06:04:17;69.31;45.59;80.43;;
58251;Laerm;51449;51.676;5.812;2023-04-01T06:06:40;70.39;41.37;82.59;;
58251;Laerm;51449;51.676;5.812;2023-04-01T06:09:22;67.92;44.12;80.82;;
58251;Laerm;51449;51.676;5.812;2023-04-01T06:17:55;68.48;44.97;86.17;;
58251;Laerm;51449;51.676;5.812;2023-04-01T06:38:30;67.47;42.52;77.08;;
58251;Laerm;51449;51.676;5.812;2023-04-01T06:41:23;67.00;43.35;81.61;;
58251;Laerm;51449;51.676;5.812;2023-04-01T06:47:17;68.43;43.98;81.33;;
58251;Laerm;51449;51.676;5.812;2023-04-01T06:54:05;69.20;44.14;81.45;;
58251;Laerm;51449;51.676;5.812;2023-04-01T06:56:58;69.12;47.89;82.22;;
58251;Laerm;51449;51.676;5.812;2023-04-01T06:59:26;65.20;43.84;75.18;;
58251;Laerm;51449;51.676;5.812;2023-04-01T07:04:37;68.24;43.75;78.56;;
58251;Laerm;51449;51.676;5.812;2023-04-01T07:07:10;66.41;45.62;77.78;;
58251;Laerm;51449;51.676;5.812;2023-04-01T07:09:55;65.79;49.06;74.68;;
58251;Laerm;51449;51.676;5.812;2023-04-01T07:12:40;68.82;43.80;81.79;;
58251;Laerm;51449;51.676;5.812;2023-04-01T07:15:42;68.28;46.12;78.90;;
58251;Laerm;51449;51.676;5.812;2023-04-01T07:18:16;64.31;43.10;76.33;;
58251;Laerm;51449;51.676;5.812;2023-04-01T07:20:39;66.29;46.15;78.47;;
58251;Laerm;51449;51.676;5.812;2023-04-01T07:23:06;68.52;47.06;83.32;;
58251;Laerm;51449;51.676;5.812;2023-04-01T07:25:52;68.01;47.09;78.10;;
58251;Laerm;51449;51.676;5.812;2023-04-01T07:28:34;67.65;47.31;80.41;;
58251;Laerm;51449;51.676;5.812;2023-04-01T07:31:50;67.10;44.93;77.94;;
58251;Laerm;51449;51.676;5.812;2023-04-01T07:34:26;66.22;43.21;79.98;;
58251;Laerm;51449;51.676;5.812;2023-04-01T07:40:14;66.90;42.23;79.12;;
58251;Laerm;51449;51.676;5.812;2023-04-01T07:45:32;67.22;48.45;75.47;;
58251;Laerm;51449;51.676;5.812;2023-04-01T07:51:06;66.82;48.05;83.99;;
58251;Laerm;51449;51.676;5.812;2023-04-01T07:59:30;67.76;47.78;81.12;;
58251;Laerm;51449;51.676;5.812;2023-04-01T08:09:20;71.11;53.64;83.69;;
58251;Laerm;51449;51.676;5.812;2023-04-01T08:15:39;69.95;50.30;78.35;;
58251;Laerm;51449;51.676;5.812;2023-04-01T08:18:46;70.21;49.86;78.25;;
58251;Laerm;51449;51.676;5.812;2023-04-01T08:21:24;73.77;52.26;83.33;;
58251;Laerm;51449;51.676;5.812;2023-04-01T08:23:51;73.13;49.18;82.46;;
58251;Laerm;51449;51.676;5.812;2023-04-01T08:26:32;72.87;56.73;81.64;;
58251;Laerm;51449;51.676;5.812;2023-04-01T08:29:09;72.09;49.83;79.84;;
58251;Laerm;51449;51.676;5.812;2023-04-01T08:32:06;71.86;52.39;79.62;;
58251;Laerm;51449;51.676;5.812;2023-04-01T08:34:43;72.76;52.58;81.01;;
58251;Laerm;51449;51.676;5.812;2023-04-01T08:37:25;71.19;51.44;79.84;;
58251;Laerm;51449;51.676;5.812;2023-04-01T08:40:01;71.38;53.77;80.53;;
58251;Laerm;51449;51.676;5.812;2023-04-01T08:43:12;73.53;53.07;83.06;;
58251;Laerm;51449;51.676;5.812;2023-04-01T08:48:41;72.29;49.01;80.26;;
58251;Laerm;51449;51.676;5.812;2023-04-01T08:52:09;72.18;54.30;81.19;;
58251;Laerm;51449;51.676;5.812;2023-04-01T09:01:46;69.86;51.14;81.61;;
58251;Laerm;51449;51.676;5.812;2023-04-01T09:05:18;71.48;50.49;82.00;;
58251;Laerm;51449;51.676;5.812;2023-04-01T09:17:30;70.80;57.02;80.94;;
58251;Laerm;51449;51.676;5.812;2023-04-01T09:41:02;70.80;47.10;81.16;;
58251;Laerm;51449;51.676;5.812;2023-04-01T09:44:11;67.21;47.59;75.75;;
58251;Laerm;51449;51.676;5.812;2023-04-01T10:02:28;70.20;44.72;81.24;;
58251;Laerm;51449;51.676;5.812;2023-04-01T10:15:22;69.52;48.67;78.73;;
58251;Laerm;51449;51.676;5.812;2023-04-01T10:18:05;71.44;53.58;82.92;;
58251;Laerm;51449;51.676;5.812;2023-04-01T10:23:57;70.10;48.91;81.25;;
58251;Laerm;51449;51.676;5.812;2023-04-01T10:33:52;70.59;53.07;78.88;;
58251;Laerm;51449;51.676;5.812;2023-04-01T10:36:41;70.28;45.10;81.88;;
58251;Laerm;51449;51.676;5.812;2023-04-01T10:52:33;70.86;48.87;81.17;;
58251;Laerm;51449;51.676;5.812;2023-04-01T10:59:53;73.33;51.66;82.42;;
58251;Laerm;51449;51.676;5.812;2023-04-01T11:08:28;71.75;53.34;78.27;;
58251;Laerm;51449;51.676;5.812;2023-04-01T11:15:14;72.25;45.11;79.74;;
58251;Laerm;51449;51.676;5.812;2023-04-01T11:29:04;66.98;48.55;77.19;;
58251;Laerm;51449;51.676;5.812;2023-04-01T11:31:44;70.55;49.40;77.88;;
58251;Laerm;51449;51.676;5.812;2023-04-01T11:37:35;71.67;55.70;83.42;;
58251;Laerm;51449;51.676;5.812;2023-04-01T11:40:54;71.08;53.67;79.73;;
58251;Laerm;51449;51.676;5.812;2023-04-01T11:44:20;71.13;50.39;80.73;;
58251;Laerm;51449;51.676;5.812;2023-04-01T11:58:59;71.20;50.26;81.32;;
58251;Laerm;51449;51.676;5.812;2023-04-01T12:04:50;71.38;47.83;81.83;;
58251;Laerm;51449;51.676;5.812;2023-04-01T12:10:20;71.15;53.00;79.20;;
58251;Laerm;51449;51.676;5.812;2023-04-01T12:13:02;72.16;52.58;79.46;;
58251;Laerm;51449;51.676;5.812;2023-04-01T12:30:27;68.61;55.39;77.26;;
58251;Laerm;51449;51.676;5.812;2023-04-01T12:44:07;69.95;50.21;79.69;;
58251;Laerm;51449;51.676;5.812;2023-04-01T12:58:44;65.55;44.82;75.30;;
58251;Laerm;51449;51.676;5.812;2023-04-01T13:03:58;69.19;51.06;75.85;;
58251;Laerm;51449;51.676;5.812;2023-04-01T13:06:44;70.71;50.61;80.39;;
58251;Laerm;51449;51.676;5.812;2023-04-01T13:09:45;69.16;47.65;79.98;;
58251;Laerm;51449;51.676;5.812;2023-04-01T13:12:36;67.79;48.84;80.18;;
58251;Laerm;51449;51.676;5.812;2023-04-01T13:18:55;69.29;48.03;79.96;;
58251;Laerm;51449;51.676;5.812;2023-04-01T13:27:07;70.42;51.20;81.82;;
58251;Laerm;51449;51.676;5.812;2023-04-01T13:32:33;68.73;50.75;77.16;;
58251;Laerm;51449;51.676;5.812;2023-04-01T13:35:28;67.16;42.91;76.57;;
58251;Laerm;51449;51.676;5.812;2023-04-01T13:41:09;67.89;52.26;76.87;;
58251;Laerm;51449;51.676;5.812;2023-04-01T13:43:37;69.03;48.18;77.92;;
58251;Laerm;51449;51.676;5.812;2023-04-01T13:51:44;68.54;46.20;77.66;;
58251;Laerm;51449;51.676;5.812;2023-04-01T14:00:22;72.26;48.45;83.52;;
58251;Laerm;51449;51.676;5.812;2023-04-01T14:06:14;71.76;50.75;82.19;;
58251;Laerm;51449;51.676;5.812;2023-04-01T14:20:37;73.30;54.22;83.08;;
58251;Laerm;51449;51.676;5.812;2023-04-01T14:48:15;70.56;53.87;78.26;;
58251;Laerm;51449;51.676;5.812;2023-04-01T14:51:09;69.94;46.83;79.50;;
58251;Laerm;51449;51.676;5.812;2023-04-01T14:53:38;71.93;51.90;81.13;;
58251;Laerm;51449;51.676;5.812;2023-04-01T14:56:07;71.64;48.59;82.28;;
58251;Laerm;51449;51.676;5.812;2023-04-01T14:58:45;69.53;51.85;78.07;;
58251;Laerm;51449;51.676;5.812;2023-04-01T15:02:27;70.51;52.61;79.06;;
58251;Laerm;51449;51.676;5.812;2023-04-01T15:04:53;69.27;47.07;80.91;;
58251;Laerm;51449;51.676;5.812;2023-04-01T15:14:25;66.69;46.63;78.23;;
58251;Laerm;51449;51.676;5.812;2023-04-01T15:16:53;71.39;47.80;82.22;;
58251;Laerm;51449;51.676;5.812;2023-04-01T15:20:04;69.29;48.95;79.42;;
58251;Laerm;51449;51.676;5.812;2023-04-01T15:29:11;71.19;51.14;85.02;;
58251;Laerm;51449;51.676;5.812;2023-04-01T15:31:47;68.84;50.47;78.43;;
58251;Laerm;51449;51.676;5.812;2023-04-01T15:37:17;72.96;51.81;83.16;;
58251;Laerm;51449;51.676;5.812;2023-04-01T15:40:21;70.29;47.54;79.43;;
58251;Laerm;51449;51.676;5.812;2023-04-01T15:48:43;71.04;52.57;81.28;;
58251;Laerm;51449;51.676;5.812;2023-04-01T15:56:45;68.82;51.39;79.50;;
58251;Laerm;51449;51.676;5.812;2023-04-01T16:09:23;71.82;50.10;79.40;;
58251;Laerm;51449;51.676;5.812;2023-04-01T16:14:44;69.81;48.12;78.46;;
58251;Laerm;51449;51.676;5.812;2023-04-01T16:20:20;69.24;48.16;78.74;;
58251;Laerm;51449;51.676;5.812;2023-04-01T16:23:09;68.67;50.18;81.24;;
58251;Laerm;51449;51.676;5.812;2023-04-01T16:25:43;67.83;49.00;76.77;;
58251;Laerm;51449;51.676;5.812;2023-04-01T16:28:34;68.58;47.59;77.50;;
58251;Laerm;51449;51.676;5.812;2023-04-01T16:31:16;71.05;42.98;82.96;;
58251;Laerm;51449;51.676;5.812;2023-04-01T16:37:17;68.66;50.11;78.68;;
58251;Laerm;51449;51.676;5.812;2023-04-01T16:40:13;68.22;46.22;77.34;;
58251;Laerm;51449;51.676;5.812;2023-04-01T16:42:51;67.20;45.43;76.23;;
58251;Laerm;51449;51.676;5.812;2023-04-01T16:45:33;67.45;45.63;77.70;;
58251;Laerm;51449;51.676;5.812;2023-04-01T16:48:15;71.43;52.49;82.34;;
58251;Laerm;51449;51.676;5.812;2023-04-01T16:51:04;69.91;47.63;77.83;;
58251;Laerm;51449;51.676;5.812;2023-04-01T16:53:52;69.19;50.10;80.24;;
58251;Laerm;51449;51.676;5.812;2023-04-01T16:56:24;71.66;56.24;79.04;;
58251;Laerm;51449;51.676;5.812;2023-04-01T16:59:14;70.99;55.90;80.20;;
58251;Laerm;51449;51.676;5.812;2023-04-01T17:02:02;69.44;55.67;79.00;;
58251;Laerm;51449;51.676;5.812;2023-04-01T17:04:48;70.19;54.04;80.02;;
58251;Laerm;51449;51.676;5.812;2023-04-01T17:10:25;69.11;50.70;80.30;;
58251;Laerm;51449;51.676;5.812;2023-04-01T17:25:02;71.01;47.14;83.72;;
58251;Laerm;51449;51.676;5.812;2023-04-01T17:28:05;68.58;43.40;83.50;;
58251;Laerm;51449;51.676;5.812;2023-04-01T17:30:45;66.92;41.86;79.43;;
58251;Laerm;51449;51.676;5.812;2023-04-01T17:33:50;69.91;50.24;77.04;;
58251;Laerm;51449;51.676;5.812;2023-04-01T17:39:18;66.19;45.80;83.79;;
58251;Laerm;51449;51.676;5.812;2023-04-01T17:42:10;69.27;44.29;78.51;;
58251;Laerm;51449;51.676;5.812;2023-04-01T17:44:52;69.59;46.30;78.56;;
58251;Laerm;51449;51.676;5.812;2023-04-01T17:50:34;68.02;45.64;78.80;;
58251;Laerm;51449;51.676;5.812;2023-04-01T17:53:47;67.52;44.62;78.14;;
58251;Laerm;51449;51.676;5.812;2023-04-01T17:57:00;67.22;46.33;79.65;;
58251;Laerm;51449;51.676;5.812;2023-04-01T17:59:56;68.02;46.94;79.84;;
58251;Laerm;51449;51.676;5.812;2023-04-01T18:02:54;66.24;46.94;77.41;;
58251;Laerm;51449;51.676;5.812;2023-04-01T18:05:26;67.14;44.38;79.58;;
58251;Laerm;51449;51.676;5.812;2023-04-01T18:11:04;67.48;46.00;77.86;;
58251;Laerm;51449;51.676;5.812;2023-04-01T18:21:43;65.98;46.14;76.43;;
58251;Laerm;51449;51.676;5.812;2023-04-01T18:24:29;64.91;43.17;85.15;;
58251;Laerm;51449;51.676;5.812;2023-04-01T18:27:17;65.04;44.60;75.53;;
58251;Laerm;51449;51.676;5.812;2023-04-01T18:29:51;67.97;51.97;78.72;;
58251;Laerm;51449;51.676;5.812;2023-04-01T18:32:35;68.62;45.94;80.63;;
58251;Laerm;51449;51.676;5.812;2023-04-01T18:35:28;67.89;45.99;78.85;;
58251;Laerm;51449;51.676;5.812;2023-04-01T18:38:03;66.02;44.86;75.09;;
58251;Laerm;51449;51.676;5.812;2023-04-01T18:40:36;64.36;43.68;75.04;;
58251;Laerm;51449;51.676;5.812;2023-04-01T18:43:46;61.70;40.41;72.79;;
58251;Laerm;51449;51.676;5.812;2023-04-01T18:49:21;65.07;42.14;76.32;;
58251;Laerm;51449;51.676;5.812;2023-04-01T18:52:10;65.66;42.98;76.04;;
58251;Laerm;51449;51.676;5.812;2023-04-01T18:57:49;62.43;41.87;74.08;;
58251;Laerm;51449;51.676;5.812;2023-04-01T19:00:25;64.72;43.71;73.22;;
58251;Laerm;51449;51.676;5.812;2023-04-01T19:03:32;64.86;44.30;73.84;;
58251;Laerm;51449;51.676;5.812;2023-04-01T19:06:00;64.75;42.94;74.55;;
58251;Laerm;51449;51.676;5.812;2023-04-01T19:08:35;58.10;36.08;72.23;;
58251;Laerm;51449;51.676;5.812;2023-04-01T19:11:19;65.58;42.43;75.32;;
58251;Laerm;51449;51.676;5.812;2023-04-01T19:14:04;65.50;41.42;75.94;;
58251;Laerm;51449;51.676;5.812;2023-04-01T19:16:52;64.23;41.96;73.05;;
58251;Laerm;51449;51.676;5.812;2023-04-01T19:21:58;60.35;40.87;72.86;;
58251;Laerm;51449;51.676;5.812;2023-04-01T19:27:22;64.11;40.93;75.00;;
58251;Laerm;51449;51.676;5.812;2023-04-01T19:30:32;62.71;36.37;75.66;;
58251;Laerm;51449;51.676;5.812;2023-04-01T19:33:28;65.63;36.23;78.59;;
58251;Laerm;51449;51.676;5.812;2023-04-01T19:36:11;62.58;40.74;74.12;;
58251;Laerm;51449;51.676;5.812;2023-04-01T19:38:59;65.03;37.16;75.49;;
58251;Laerm;51449;51.676;5.812;2023-04-01T19:42:00;63.86;40.18;76.73;;
58251;Laerm;51449;51.676;5.812;2023-04-01T19:47:57;60.23;38.06;71.30;;
58251;Laerm;51449;51.676;5.812;2023-04-01T19:50:55;64.06;40.98;74.93;;
58251;Laerm;51449;51.676;5.812;2023-04-01T19:53:59;60.95;38.87;70.80;;
58251;Laerm;51449;51.676;5.812;2023-04-01T19:56:35;59.46;37.79;72.18;;
58251;Laerm;51449;51.676;5.812;2023-04-01T19:59:29;60.30;36.51;74.27;;
58251;Laerm;51449;51.676;5.812;2023-04-01T20:02:24;61.60;38.86;73.02;;
58251;Laerm;51449;51.676;5.812;2023-04-01T20:04:53;64.30;37.31;77.94;;
58251;Laerm;51449;51.676;5.812;2023-04-01T20:07:37;63.53;38.64;73.48;;
58251;Laerm;51449;51.676;5.812;2023-04-01T20:10:22;61.38;38.96;71.90;;
58251;Laerm;51449;51.676;5.812;2023-04-01T20:12:54;63.75;39.14;72.54;;
58251;Laerm;51449;51.676;5.812;2023-04-01T20:15:27;61.06;39.56;72.33;;
58251;Laerm;51449;51.676;5.812;2023-04-01T20:17:54;64.48;40.84;73.51;;
58251;Laerm;51449;51.676;5.812;2023-04-01T20:20:23;59.49;38.40;72.07;;
58251;Laerm;51449;51.676;5.812;2023-04-01T20:25:24;61.98;37.33;74.69;;
58251;Laerm;51449;51.676;5.812;2023-04-01T20:31:20;62.02;39.56;72.99;;
58251;Laerm;51449;51.676;5.812;2023-04-01T20:37:00;60.96;40.48;72.09;;
58251;Laerm;51449;51.676;5.812;2023-04-01T20:45:43;63.40;40.32;77.02;;
58251;Laerm;51449;51.676;5.812;2023-04-01T20:51:04;58.70;36.73;72.16;;
58251;Laerm;51449;51.676;5.812;2023-04-01T20:53:41;70.13;37.18;92.92;;
58251;Laerm;51449;51.676;5.812;2023-04-01T21:02:59;62.09;36.61;74.30;;
58251;Laerm;51449;51.676;5.812;2023-04-01T21:07:46;57.90;37.03;71.68;;
58251;Laerm;51449;51.676;5.812;2023-04-01T21:10:39;61.42;37.10;73.98;;
58251;Laerm;51449;51.676;5.812;2023-04-01T21:20:02;59.99;37.99;74.47;;
58251;Laerm;51449;51.676;5.812;2023-04-01T21:37:33;58.43;35.72;72.99;;
58251;Laerm;51449;51.676;5.812;2023-04-01T21:40:35;59.77;37.99;74.03;;
58251;Laerm;51449;51.676;5.812;2023-04-01T22:00:08;58.21;38.08;72.98;;
58251;Laerm;51449;51.676;5.812;2023-04-01T22:08:20;62.07;39.60;71.78;;
58251;Laerm;51449;51.676;5.812;2023-04-01T22:11:07;60.86;38.70;76.19;;
58251;Laerm;51449;51.676;5.812;2023-04-01T22:16:34;58.26;40.55;72.38;;
58251;Laerm;51449;51.676;5.812;2023-04-01T22:25:27;59.92;36.83;72.35;;
58251;Laerm;51449;51.676;5.812;2023-04-01T22:28:09;56.69;35.95;71.17;;
58251;Laerm;51449;51.676;5.812;2023-04-01T22:30:42;57.60;38.02;72.22;;
58251;Laerm;51449;51.676;5.812;2023-04-01T22:33:32;52.02;39.55;73.19;;
58251;Laerm;51449;51.676;5.812;2023-04-01T22:36:25;58.06;38.10;72.07;;
58251;Laerm;51449;51.676;5.812;2023-04-01T22:42:05;59.80;37.92;74.49;;
58251;Laerm;51449;51.676;5.812;2023-04-01T22:45:04;61.96;41.22;83.27;;
58251;Laerm;51449;51.676;5.812;2023-04-01T22:50:47;60.71;34.53;76.71;;
58251;Laerm;51449;51.676;5.812;2023-04-01T22:53:42;58.62;32.80;77.37;;